createdAt,value
2022-08-22T00:02:34.667Z,98058.97
2022-08-22T00:02:44.828Z,98016.81
2022-08-22T00:02:53.605Z,98051.84
2022-08-22T00:03:06.413Z,98067.69
2022-08-22T00:05:32.434Z,98054.59
2022-08-22T00:08:30.529Z,98050.53
2022-08-22T00:11:22.396Z,98056.69
2022-08-22T00:14:15.498Z,98054.28
2022-08-22T00:16:58.731Z,98051.53
2022-08-22T00:20:10.572Z,98053.53
2022-08-22T00:22:54.268Z,98057.03
2022-08-22T00:25:59.632Z,98051.41
2022-08-22T00:28:37.010Z,98050.09
2022-08-22T00:31:31.987Z,98059.34
2022-08-22T00:34:10.912Z,98053.69
2022-08-22T00:39:29.304Z,98051.69
2022-08-22T00:42:29.081Z,98052.84
2022-08-22T00:45:47.272Z,98053.75
2022-08-22T00:49:01.019Z,98056.97
2022-08-22T00:51:52.240Z,98060.72
2022-08-22T00:54:25.078Z,98055.22
2022-08-22T00:57:14.659Z,98050.09
2022-08-22T01:00:15.769Z,98047.19
2022-08-22T01:03:26.875Z,98054.94
2022-08-22T01:06:24.872Z,98048.63
2022-08-22T01:09:42.314Z,98050.81
2022-08-22T01:12:19.926Z,98048.19
2022-08-22T01:14:59.513Z,98046.69
2022-08-22T01:18:22.400Z,98053.34
2022-08-22T01:21:25.477Z,98049.50
2022-08-22T01:24:20.495Z,98043.81
2022-08-22T01:27:15.386Z,98043.16
2022-08-22T01:30:07.383Z,98041.75
2022-08-22T01:33:41.334Z,98050.31
2022-08-22T01:36:37.946Z,98046.47
2022-08-22T01:39:10.671Z,98048.50
2022-08-22T01:42:32.733Z,98044.66
2022-08-22T01:45:14.312Z,98047.19
2022-08-22T01:47:57.180Z,98049.06
2022-08-22T01:50:34.779Z,98044.41
2022-08-22T01:53:32.876Z,98048.03
2022-08-22T01:56:14.761Z,98055.72
2022-08-22T01:59:02.914Z,98051.53
2022-08-22T02:02:16.542Z,98049.69
2022-08-22T02:05:17.392Z,98052.91
2022-08-22T02:08:00.172Z,98048.53
2022-08-22T02:11:01.252Z,98050.94
2022-08-22T02:13:47.267Z,98053.22
2022-08-22T02:16:39.035Z,98045.28
2022-08-22T02:19:14.950Z,98052.81
2022-08-22T02:22:04.605Z,98050.63
2022-08-22T02:24:50.623Z,98048.97
2022-08-22T02:27:37.410Z,98052.00
2022-08-22T02:30:14.989Z,98047.84
2022-08-22T02:32:45.897Z,98042.66
2022-08-22T02:35:34.980Z,98045.75
2022-08-22T02:38:31.488Z,98037.56
2022-08-22T02:41:18.734Z,98033.75
2022-08-22T02:44:13.767Z,98037.97
2022-08-22T02:46:59.717Z,98030.88
2022-08-22T02:49:56.238Z,98034.13
2022-08-22T02:52:38.971Z,98031.41
2022-08-22T02:55:16.474Z,98027.34
2022-08-22T02:58:07.318Z,98027.34
2022-08-22T03:01:33.359Z,98030.19
2022-08-22T03:04:30.067Z,98028.22
2022-08-22T03:07:21.924Z,98036.38
2022-08-22T03:09:56.566Z,98033.63
2022-08-22T03:13:07.115Z,98023.50
2022-08-22T03:15:52.805Z,98027.69
2022-08-22T03:19:43.032Z,98021.97
2022-08-22T03:22:25.060Z,98030.25
2022-08-22T03:25:09.346Z,98031.69
2022-08-22T03:28:10.751Z,98032.34
2022-08-22T03:30:56.060Z,98028.63
2022-08-22T03:33:30.713Z,98036.91
2022-08-22T03:36:05.102Z,98038.41
2022-08-22T03:38:35.158Z,98033.06
2022-08-22T03:41:23.992Z,98032.84
2022-08-22T03:44:17.062Z,98032.00
2022-08-22T03:47:39.544Z,98027.59
2022-08-22T03:50:35.975Z,98033.75
2022-08-22T03:53:46.078Z,98026.94
2022-08-22T03:56:38.626Z,98034.00
2022-08-22T03:59:22.490Z,98041.94
2022-08-22T04:02:42.781Z,98044.47
2022-08-22T04:06:27.317Z,98047.38
2022-08-22T04:09:03.156Z,98051.81
2022-08-22T04:11:50.195Z,98052.03
2022-08-22T04:14:38.637Z,98062.38
2022-08-22T04:17:40.073Z,98064.69
2022-08-22T04:20:38.886Z,98066.31
2022-08-22T04:23:32.783Z,98066.78
2022-08-22T04:26:11.934Z,98061.66
2022-08-22T04:28:58.767Z,98068.16
2022-08-22T04:31:41.427Z,98075.97
2022-08-22T04:34:22.755Z,98068.75
2022-08-22T04:36:57.844Z,98071.53
2022-08-22T04:39:42.299Z,98075.59
2022-08-22T04:42:43.932Z,98070.63
2022-08-22T04:45:30.934Z,98070.84
2022-08-22T04:48:14.839Z,98072.13
2022-08-22T04:50:54.707Z,98072.94
2022-08-22T04:54:14.337Z,98073.63
2022-08-22T04:57:24.303Z,98075.38
2022-08-22T04:59:51.443Z,98080.94
2022-08-22T05:02:27.596Z,98080.94
2022-08-22T05:05:05.541Z,98086.19
2022-08-22T05:07:57.777Z,98082.81
2022-08-22T05:10:47.460Z,98079.94
2022-08-22T05:13:26.263Z,98082.13
2022-08-22T05:15:58.941Z,98081.78
2022-08-22T05:18:48.012Z,98085.59
2022-08-22T05:21:20.726Z,98092.34
2022-08-22T05:24:01.473Z,98090.84
2022-08-22T05:26:35.595Z,98088.75
2022-08-22T05:29:08.121Z,98090.47
2022-08-22T05:31:47.034Z,98092.44
2022-08-22T05:34:28.639Z,98094.00
2022-08-22T05:37:11.458Z,98095.50
2022-08-22T05:39:47.140Z,98096.78
2022-08-22T05:42:34.742Z,98084.91
2022-08-22T05:45:06.959Z,98094.06
2022-08-22T05:47:45.089Z,98095.75
2022-08-22T05:50:27.967Z,98099.13
2022-08-22T05:53:14.533Z,98102.06
2022-08-22T05:56:04.086Z,98100.28
2022-08-22T05:58:50.024Z,98092.78
2022-08-22T06:01:37.839Z,98089.81
2022-08-22T06:04:26.625Z,98105.75
2022-08-22T06:07:21.272Z,98095.34
2022-08-22T06:09:48.664Z,98093.50
2022-08-22T06:12:43.083Z,98092.34
2022-08-22T06:15:23.175Z,98089.66
2022-08-22T06:17:55.703Z,98089.66
2022-08-22T06:20:45.216Z,98095.69
2022-08-22T06:23:26.416Z,98096.63
2022-08-22T06:25:57.707Z,98099.31
2022-08-22T06:28:32.805Z,98102.34
2022-08-22T06:31:02.354Z,98092.44
2022-08-22T06:33:34.456Z,98107.09
2022-08-22T06:36:25.900Z,98097.31
2022-08-22T06:39:13.870Z,98101.16
2022-08-22T06:42:25.853Z,98092.59
2022-08-22T06:45:29.143Z,98089.66
2022-08-22T06:48:15.456Z,98091.03
2022-08-22T06:50:45.824Z,98090.69
2022-08-22T06:53:23.194Z,98093.28
2022-08-22T06:55:55.161Z,98088.16
2022-08-22T06:58:42.616Z,98088.06
2022-08-22T07:01:18.449Z,98095.97
2022-08-22T07:04:02.072Z,98090.03
2022-08-22T07:06:42.685Z,98091.75
2022-08-22T07:09:34.946Z,98093.81
2022-08-22T07:12:12.153Z,98095.28
2022-08-22T07:14:47.214Z,98095.88
2022-08-22T07:17:25.334Z,98106.16
2022-08-22T07:20:11.238Z,98100.47
2022-08-22T07:22:38.463Z,98094.69
2022-08-22T07:25:14.683Z,98092.03
2022-08-22T07:28:03.856Z,98087.19
2022-08-22T07:30:55.801Z,98095.34
2022-08-22T07:33:39.135Z,98084.50
2022-08-22T07:36:31.766Z,98092.22
2022-08-22T07:39:35.196Z,98093.63
2022-08-22T07:42:18.785Z,98098.75
2022-08-22T07:45:07.790Z,98100.53
2022-08-22T07:48:03.603Z,98099.38
2022-08-22T07:50:57.890Z,98100.34
2022-08-22T07:53:46.249Z,98101.03
2022-08-22T07:56:22.777Z,98100.19
2022-08-22T07:58:58.851Z,98101.56
2022-08-22T08:01:27.229Z,98093.44
2022-08-22T08:04:00.695Z,98101.78
2022-08-22T08:06:29.234Z,98089.78
2022-08-22T08:08:57.787Z,98097.59
2022-08-22T08:11:27.627Z,98092.78
2022-08-22T08:14:04.295Z,98091.22
2022-08-22T08:16:42.872Z,98089.28
2022-08-22T08:19:12.511Z,98103.97
2022-08-22T08:21:49.426Z,98101.53
2022-08-22T08:24:27.998Z,98101.84
2022-08-22T08:27:36.176Z,98113.63
2022-08-22T08:30:20.186Z,98110.28
2022-08-22T08:33:24.271Z,98111.72
2022-08-22T08:36:02.273Z,98110.06
2022-08-22T08:38:42.673Z,98115.47
2022-08-22T08:41:33.807Z,98112.91
2022-08-22T08:44:45.993Z,98112.84
2022-08-22T08:47:24.557Z,98116.03
2022-08-22T08:50:24.941Z,98109.03
2022-08-22T08:52:58.618Z,98104.53
2022-08-22T08:55:43.280Z,98105.34
2022-08-22T08:59:00.656Z,98104.41
2022-08-22T09:01:48.710Z,98101.03
2022-08-22T09:05:02.077Z,98101.19
2022-08-22T09:08:14.709Z,98099.94
2022-08-22T09:11:16.175Z,98094.72
2022-08-22T09:14:01.697Z,98098.28
2022-08-22T09:17:22.980Z,98104.66
2022-08-22T09:20:26.446Z,98088.69
2022-08-22T09:23:23.592Z,98098.31
2022-08-22T09:26:32.360Z,98093.25
2022-08-22T09:29:28.998Z,98098.75
2022-08-22T09:32:12.984Z,98097.31
2022-08-22T09:35:25.198Z,98089.50
2022-08-22T09:38:24.942Z,98092.56
2022-08-22T09:41:07.007Z,98096.47
2022-08-22T09:44:14.398Z,98089.84
2022-08-22T09:46:55.383Z,98091.81
2022-08-22T09:49:59.994Z,98091.38
2022-08-22T09:52:42.429Z,98099.19
2022-08-22T09:55:55.635Z,98097.19
2022-08-22T09:58:48.412Z,98093.69
2022-08-22T10:01:18.437Z,98103.13
2022-08-22T10:03:45.465Z,98100.84
2022-08-22T10:06:22.064Z,98095.09
2022-08-22T10:09:04.670Z,98084.81
2022-08-22T10:12:12.962Z,98077.38
2022-08-22T10:15:17.153Z,98073.66
2022-08-22T10:18:06.682Z,98081.97
2022-08-22T10:20:55.691Z,98087.53
2022-08-22T10:23:41.712Z,98085.94
2022-08-22T10:26:47.619Z,98083.91
2022-08-22T10:30:09.750Z,98086.72
2022-08-22T10:32:56.733Z,98078.25
2022-08-22T10:35:35.482Z,98072.44
2022-08-22T10:38:20.871Z,98072.53
2022-08-22T10:41:24.352Z,98063.84
2022-08-22T10:44:01.237Z,98067.41
2022-08-22T10:46:57.203Z,98063.47
2022-08-22T10:49:29.338Z,98064.75
2022-08-22T10:52:17.003Z,98058.84
2022-08-22T10:55:00.670Z,98059.97
2022-08-22T10:58:04.874Z,98056.78
2022-08-22T11:00:51.471Z,98047.72
2022-08-22T11:04:03.669Z,98045.59
2022-08-22T11:06:52.482Z,98042.38
2022-08-22T11:09:40.585Z,98038.47
2022-08-22T11:12:34.929Z,98029.50
2022-08-22T11:15:28.392Z,98025.09
2022-08-22T11:18:23.658Z,98025.31
2022-08-22T11:21:04.664Z,98024.81
2022-08-22T11:23:43.175Z,98031.13
2022-08-22T11:26:41.710Z,98020.59
2022-08-22T11:29:31.118Z,98021.31
2022-08-22T11:32:14.388Z,98013.28
2022-08-22T11:35:09.094Z,98024.22
2022-08-22T11:38:05.395Z,98027.31
2022-08-22T11:41:12.913Z,98026.91
2022-08-22T11:43:55.630Z,98028.72
2022-08-22T11:46:32.426Z,98017.50
2022-08-22T11:49:34.120Z,98007.91
2022-08-22T11:52:25.466Z,98000.91
2022-08-22T11:54:58.307Z,98005.66
2022-08-22T11:57:44.348Z,98003.03
2022-08-22T12:00:39.235Z,98010.19
2022-08-22T12:03:58.353Z,98005.75
2022-08-22T12:06:57.690Z,98002.63
2022-08-22T12:09:50.743Z,97990.97
2022-08-22T12:12:38.075Z,98001.41
2022-08-22T12:15:42.672Z,98002.41
2022-08-22T12:18:40.577Z,98005.66
2022-08-22T12:21:38.496Z,97988.22
2022-08-22T12:24:30.948Z,97996.47
2022-08-22T12:28:03.215Z,97990.09
2022-08-22T12:31:21.988Z,97996.81
2022-08-22T12:33:54.607Z,97991.50
2022-08-22T12:36:58.348Z,97994.91
2022-08-22T12:39:35.489Z,97988.97
2022-08-22T12:42:37.686Z,97990.47
2022-08-22T12:45:27.179Z,97995.22
2022-08-22T12:48:24.843Z,97991.78
2022-08-22T12:51:28.989Z,97983.22
2022-08-22T12:54:20.767Z,97984.09
2022-08-22T12:57:24.368Z,97978.94
2022-08-22T13:00:35.852Z,97979.72
2022-08-22T13:03:12.048Z,97977.47
2022-08-22T13:05:45.952Z,97969.50
2022-08-22T13:08:32.435Z,97978.34
2022-08-22T13:11:14.631Z,97975.47
2022-08-22T13:13:58.911Z,97969.91
2022-08-22T13:16:48.919Z,97971.75
2022-08-22T13:19:23.923Z,97975.25
2022-08-22T13:22:17.870Z,97975.22
2022-08-22T13:24:55.475Z,97976.22
2022-08-22T13:27:51.194Z,97973.41
2022-08-22T13:30:38.865Z,97974.06
2022-08-22T13:33:27.322Z,97967.28
2022-08-22T13:36:00.606Z,97969.06
2022-08-22T13:38:58.515Z,97968.00
2022-08-22T13:44:27.755Z,97970.41
2022-08-22T13:47:20.272Z,97971.50
2022-08-22T13:50:11.681Z,97964.97
2022-08-22T13:52:56.108Z,97961.41
2022-08-22T13:55:35.324Z,97948.13
2022-08-22T13:58:40.294Z,97951.56
2022-08-22T14:01:40.954Z,97945.66
2022-08-22T14:04:21.922Z,97951.13
2022-08-22T14:07:44.537Z,97945.16
2022-08-22T14:10:28.561Z,97944.53
2022-08-22T14:12:58.328Z,97938.59
2022-08-22T14:15:44.608Z,97935.72
2022-08-22T14:18:20.717Z,97944.00
2022-08-22T14:21:33.446Z,97947.44
2022-08-22T14:24:45.553Z,97939.75
2022-08-22T14:27:17.551Z,97938.94
2022-08-22T14:29:56.496Z,97937.63
2022-08-22T14:32:27.706Z,97935.84
2022-08-22T14:35:34.772Z,97938.78
2022-08-22T14:38:35.886Z,97937.38
2022-08-22T14:41:15.999Z,97941.50
2022-08-22T14:44:05.723Z,97933.88
2022-08-22T14:46:51.984Z,97923.34
2022-08-22T14:49:19.070Z,97936.66
2022-08-22T14:52:01.640Z,97935.50
2022-08-22T14:54:30.824Z,97935.59
2022-08-22T14:57:00.993Z,97934.84
2022-08-22T14:59:43.351Z,97928.00
2022-08-22T15:02:31.517Z,97930.63
2022-08-22T15:05:12.767Z,97928.16
2022-08-22T15:07:40.542Z,97935.81
2022-08-22T15:10:29.599Z,97931.09
2022-08-22T15:13:07.992Z,97924.84
2022-08-22T15:15:52.537Z,97919.78
2022-08-22T15:18:30.004Z,97918.22
2022-08-22T15:21:31.693Z,97916.66
2022-08-22T15:24:06.515Z,97916.22
2022-08-22T15:26:40.468Z,97917.94
2022-08-22T15:29:37.101Z,97910.28
2022-08-22T15:32:04.760Z,97916.38
2022-08-22T15:34:40.758Z,97908.03
2022-08-22T15:37:32.424Z,97902.41
2022-08-22T15:40:44.254Z,97900.34
2022-08-22T15:43:28.883Z,97900.50
2022-08-22T15:46:20.779Z,97893.09
2022-08-22T15:49:06.868Z,97893.25
2022-08-22T15:51:43.646Z,97889.50
2022-08-22T15:54:16.253Z,97892.59
2022-08-22T15:56:51.996Z,97893.25
2022-08-22T16:00:00.735Z,97886.38
2022-08-22T16:02:35.382Z,97887.59
2022-08-22T16:05:12.058Z,97890.22
2022-08-22T16:07:50.422Z,97890.16
2022-08-22T16:10:20.614Z,97885.47
2022-08-22T16:13:16.357Z,97889.09
2022-08-22T16:15:55.726Z,97887.38
2022-08-22T16:18:39.455Z,97884.28
2022-08-22T16:21:15.241Z,97887.31
2022-08-22T16:23:51.358Z,97892.88
2022-08-22T16:26:42.926Z,97897.59
2022-08-22T16:29:18.067Z,97898.28
2022-08-22T16:31:48.552Z,97890.22
2022-08-22T16:34:22.944Z,97895.28
2022-08-22T16:36:54.491Z,97893.97
2022-08-22T16:39:21.400Z,97893.47
2022-08-22T16:41:50.015Z,97896.47
2022-08-22T16:44:21.463Z,97898.03
2022-08-22T16:46:51.808Z,97892.94
2022-08-22T16:49:32.907Z,97896.63
2022-08-22T16:52:22.226Z,97893.41
2022-08-22T16:54:55.826Z,97888.09
2022-08-22T16:57:27.784Z,97895.09
2022-08-22T17:00:34.548Z,97894.69
2022-08-22T17:03:29.392Z,97894.69
2022-08-22T17:06:14.464Z,97885.28
2022-08-22T17:09:27.106Z,97893.91
2022-08-22T17:12:38.941Z,97887.84
2022-08-22T17:15:35.778Z,97886.28
2022-08-22T17:18:32.559Z,97898.72
2022-08-22T17:21:27.027Z,97899.84
2022-08-22T17:24:32.060Z,97897.59
2022-08-22T17:27:19.197Z,97900.31
2022-08-22T17:30:06.838Z,97901.03
2022-08-22T17:32:59.967Z,97912.94
2022-08-22T17:36:04.662Z,97903.22
2022-08-22T17:38:41.797Z,97906.47
2022-08-22T17:41:25.093Z,97911.00
2022-08-22T17:44:42.101Z,97910.16
2022-08-22T17:47:18.693Z,97918.88
2022-08-22T17:50:06.387Z,97919.94
2022-08-22T17:52:42.241Z,97918.13
2022-08-22T17:55:23.260Z,97932.09
2022-08-22T17:58:37.806Z,97927.84
2022-08-22T18:01:16.167Z,97928.19
2022-08-22T18:03:52.259Z,97928.91
2022-08-22T18:06:25.496Z,97931.56
2022-08-22T18:09:17.043Z,97936.44
2022-08-22T18:11:56.023Z,97939.78
2022-08-22T18:15:13.481Z,97936.97
2022-08-22T18:17:47.533Z,97943.91
2022-08-22T18:20:45.356Z,97941.81
2022-08-22T18:23:39.765Z,97941.34
2022-08-22T18:26:51.499Z,97939.84
2022-08-22T18:29:47.017Z,97945.47
2022-08-22T18:32:53.804Z,97952.25
2022-08-22T18:35:53.961Z,97948.47
2022-08-22T18:38:56.939Z,97949.53
2022-08-22T18:41:50.347Z,97955.94
2022-08-22T18:44:29.517Z,97955.47
2022-08-22T18:47:13.921Z,97960.31
2022-08-22T18:49:46.459Z,97972.50
2022-08-22T18:52:19.892Z,97973.31
2022-08-22T18:55:10.341Z,97979.56
2022-08-22T18:57:43.150Z,97975.69
2022-08-22T19:00:17.971Z,97965.22
2022-08-22T19:03:01.072Z,97977.09
2022-08-22T19:06:01.125Z,97981.09
2022-08-22T19:09:01.297Z,97977.84
2022-08-22T19:12:16.836Z,97986.75
2022-08-22T19:15:21.402Z,97983.25
2022-08-22T19:18:23.090Z,97992.19
2022-08-22T19:21:37.830Z,97998.59
2022-08-22T19:24:27.505Z,97996.88
2022-08-22T19:27:19.516Z,98006.13
2022-08-22T19:29:46.933Z,98000.19
2022-08-22T19:32:45.053Z,98007.25
2022-08-22T19:35:43.175Z,98005.13
2022-08-22T19:38:11.478Z,98006.44
2022-08-22T19:40:56.191Z,98015.84
2022-08-22T19:43:40.353Z,98012.06
2022-08-22T19:46:11.107Z,98012.06
2022-08-22T19:48:50.187Z,98019.31
2022-08-22T19:51:20.376Z,98014.22
2022-08-22T19:54:20.468Z,98018.19
2022-08-22T19:57:41.893Z,98010.16
2022-08-22T20:00:18.606Z,98014.50
2022-08-22T20:03:12.675Z,98010.44
2022-08-22T20:06:33.548Z,98015.00
2022-08-22T20:09:32.500Z,98022.03
2022-08-22T20:12:29.671Z,98014.13
2022-08-22T20:14:57.128Z,98017.81
2022-08-22T20:17:27.325Z,98015.66
2022-08-22T20:20:17.243Z,98013.94
2022-08-22T20:22:53.395Z,98010.97
2022-08-22T20:25:42.930Z,98015.28
2022-08-22T20:28:38.942Z,98014.78
2022-08-22T20:31:22.644Z,98011.31
2022-08-22T20:34:00.943Z,98012.81
2022-08-22T20:36:29.310Z,98021.66
2022-08-22T20:39:23.198Z,98011.81
2022-08-22T20:41:56.394Z,98012.19
2022-08-22T20:44:38.360Z,98017.91
2022-08-22T20:47:20.605Z,98023.25
2022-08-22T20:50:02.837Z,98021.38
2022-08-22T20:52:43.710Z,98023.78
2022-08-22T20:55:27.299Z,98014.44
2022-08-22T20:58:06.601Z,98016.69
2022-08-22T21:00:47.291Z,98024.00
2022-08-22T21:03:48.956Z,98023.19
2022-08-22T21:06:22.632Z,98016.44
2022-08-22T21:09:10.072Z,98027.22
2022-08-22T21:11:42.757Z,98031.38
2022-08-22T21:14:26.005Z,98033.16
2022-08-22T21:16:53.892Z,98035.50
2022-08-22T21:19:28.328Z,98044.38
2022-08-22T21:22:13.280Z,98039.41
2022-08-22T21:24:41.293Z,98036.09
2022-08-22T21:27:09.472Z,98039.75
2022-08-22T21:29:46.441Z,98036.19
2022-08-22T21:32:24.746Z,98037.66
2022-08-22T21:34:52.912Z,98042.66
2022-08-22T21:37:39.837Z,98046.25
2022-08-22T21:40:37.552Z,98035.34
2022-08-22T21:43:31.129Z,98043.34
2022-08-22T21:45:58.271Z,98051.44
2022-08-22T21:48:44.595Z,98046.25
2022-08-22T21:51:41.131Z,98046.47
2022-08-22T21:54:29.064Z,98048.31
2022-08-22T21:57:10.390Z,98060.59
2022-08-22T21:59:50.691Z,98053.56
2022-08-22T22:02:37.631Z,98055.84
2022-08-22T22:05:17.588Z,98054.84
2022-08-22T22:07:47.489Z,98060.47
2022-08-22T22:10:19.691Z,98065.25
2022-08-22T22:12:51.800Z,98057.34
2022-08-22T22:15:22.394Z,98058.09
2022-08-22T22:17:50.321Z,98062.59
2022-08-22T22:20:19.656Z,98060.84
2022-08-22T22:22:47.542Z,98056.28
2022-08-22T22:25:39.911Z,98058.41
2022-08-22T22:28:10.161Z,98061.81
2022-08-22T22:30:37.294Z,98062.66
2022-08-22T22:33:04.779Z,98062.34
2022-08-22T22:35:32.555Z,98064.47
2022-08-22T22:37:59.670Z,98073.94
2022-08-22T22:40:26.815Z,98070.97
2022-08-22T22:42:54.033Z,98069.16
2022-08-22T22:45:21.079Z,98065.59
2022-08-22T22:47:48.145Z,98066.16
2022-08-22T22:50:15.364Z,98072.09
2022-08-22T22:52:45.703Z,98081.69
2022-08-22T22:55:13.010Z,98078.84
2022-08-22T22:57:59.059Z,98076.00
2022-08-22T23:00:32.316Z,98083.91
2022-08-22T23:03:02.451Z,98077.91
2022-08-22T23:05:31.455Z,98082.91
2022-08-22T23:07:59.579Z,98092.34
2022-08-22T23:10:28.482Z,98084.41
2022-08-22T23:12:56.101Z,98087.94
2022-08-22T23:15:23.467Z,98090.97
2022-08-22T23:17:50.502Z,98093.09
2022-08-22T23:20:18.125Z,98089.34
2022-08-22T23:22:46.081Z,98096.59
2022-08-22T23:25:14.014Z,98098.78
2022-08-22T23:27:41.309Z,98098.72
2022-08-22T23:30:10.564Z,98098.97
2022-08-22T23:32:37.969Z,98102.53
2022-08-22T23:35:06.076Z,98098.91
2022-08-22T23:37:33.269Z,98114.56
2022-08-22T23:40:00.353Z,98111.34
2022-08-22T23:42:29.111Z,98111.41
2022-08-22T23:44:56.106Z,98112.91
2022-08-22T23:47:23.120Z,98110.50
2022-08-22T23:49:50.111Z,98108.84
2022-08-22T23:52:17.236Z,98108.03
2022-08-22T23:54:44.223Z,98105.09
2022-08-22T23:57:11.899Z,98111.75
2022-08-22T23:59:46.462Z,98106.78
